createdAt,value
2019-06-26T00:00:13.251Z,914.50
2019-06-26T00:01:13.217Z,914.55
2019-06-26T00:02:13.769Z,914.57
2019-06-26T00:03:13.141Z,914.56
2019-06-26T00:04:13.141Z,914.59
2019-06-26T00:05:13.146Z,914.52
2019-06-26T00:06:13.028Z,914.59
2019-06-26T00:07:12.981Z,914.57
2019-06-26T00:08:13.073Z,914.55
2019-06-26T00:09:12.920Z,914.54
2019-06-26T00:10:12.869Z,914.51
2019-06-26T00:11:12.837Z,914.50
2019-06-26T00:12:12.790Z,914.49
2019-06-26T00:13:25.569Z,914.50
2019-06-26T00:14:12.712Z,914.51
2019-06-26T00:15:12.779Z,914.52
2019-06-26T00:16:12.654Z,914.57
2019-06-26T00:17:12.616Z,914.55
2019-06-26T00:18:12.570Z,914.52
2019-06-26T00:19:12.546Z,914.56
2019-06-26T00:20:12.505Z,914.59
2019-06-26T00:21:12.456Z,914.54
2019-06-26T00:22:12.434Z,914.57
2019-06-26T00:23:12.393Z,914.55
2019-06-26T00:24:12.359Z,914.59
2019-06-26T00:25:12.311Z,914.59
2019-06-26T00:26:12.266Z,914.64
2019-06-26T00:27:12.231Z,914.64
2019-06-26T00:28:12.186Z,914.65
2019-06-26T00:29:12.144Z,914.67
2019-06-26T00:30:12.105Z,914.66
2019-06-26T00:31:12.074Z,914.69
2019-06-26T00:32:12.044Z,914.71
2019-06-26T00:33:12.112Z,914.68
2019-06-26T00:34:11.990Z,914.72
2019-06-26T00:35:11.917Z,914.70
2019-06-26T00:36:11.887Z,914.72
2019-06-26T00:37:11.858Z,914.74
2019-06-26T00:38:11.810Z,914.71
2019-06-26T00:39:11.919Z,914.71
2019-06-26T00:40:11.727Z,914.72
2019-06-26T00:41:11.787Z,914.69
2019-06-26T00:42:11.662Z,914.73
2019-06-26T00:43:11.621Z,914.73
2019-06-26T00:44:11.587Z,914.75
2019-06-26T00:45:11.541Z,914.76
2019-06-26T00:46:11.504Z,914.77
2019-06-26T00:47:11.483Z,914.79
2019-06-26T00:48:11.434Z,914.75
2019-06-26T00:49:11.397Z,914.76
2019-06-26T00:50:11.745Z,914.74
2019-06-26T00:51:11.372Z,914.75
2019-06-26T00:52:11.286Z,914.74
2019-06-26T00:53:11.241Z,914.73
2019-06-26T00:54:11.429Z,914.76
2019-06-26T00:55:11.160Z,914.75
2019-06-26T00:56:11.156Z,914.75
2019-06-26T00:57:11.130Z,914.79
2019-06-26T00:58:11.050Z,914.77
2019-06-26T00:59:11.028Z,914.77
2019-06-26T01:00:11.023Z,914.77
2019-06-26T01:01:11.085Z,914.75
2019-06-26T01:02:10.936Z,914.72
2019-06-26T01:03:10.867Z,914.75
2019-06-26T01:04:10.818Z,914.72
2019-06-26T01:05:10.781Z,914.70
2019-06-26T01:06:10.800Z,914.72
2019-06-26T01:07:10.855Z,914.72
2019-06-26T01:08:10.675Z,914.72
2019-06-26T01:09:10.696Z,914.72
2019-06-26T01:10:10.586Z,914.73
2019-06-26T01:11:10.550Z,914.75
2019-06-26T01:12:10.515Z,914.77
2019-06-26T01:13:10.473Z,914.79
2019-06-26T01:14:10.458Z,914.80
2019-06-26T01:15:10.412Z,914.77
2019-06-26T01:16:10.429Z,914.80
2019-06-26T01:17:10.319Z,914.74
2019-06-26T01:18:10.278Z,914.76
2019-06-26T01:19:10.251Z,914.77
2019-06-26T01:20:10.211Z,914.70
2019-06-26T01:21:10.208Z,914.71
2019-06-26T01:22:10.135Z,914.69
2019-06-26T01:23:10.099Z,914.65
2019-06-26T01:24:10.104Z,914.68
2019-06-26T01:25:10.011Z,914.65
2019-06-26T01:26:09.989Z,914.66
2019-06-26T01:27:09.957Z,914.69
2019-06-26T01:28:10.065Z,914.73
2019-06-26T01:29:09.863Z,914.74
2019-06-26T01:30:09.908Z,914.65
2019-06-26T01:31:09.801Z,914.62
2019-06-26T01:32:09.754Z,914.61
2019-06-26T01:33:09.710Z,914.65
2019-06-26T01:34:09.875Z,914.65
2019-06-26T01:35:09.644Z,914.70
2019-06-26T01:36:09.625Z,914.75
2019-06-26T01:37:09.601Z,914.68
2019-06-26T01:38:09.529Z,914.66
2019-06-26T01:39:09.509Z,914.70
2019-06-26T01:40:09.473Z,914.67
2019-06-26T01:41:09.423Z,914.63
2019-06-26T01:42:09.358Z,914.61
2019-06-26T01:43:09.327Z,914.64
2019-06-26T01:44:14.708Z,914.64
2019-06-26T01:45:09.251Z,914.65
2019-06-26T01:46:09.215Z,914.69
2019-06-26T01:47:09.179Z,914.70
2019-06-26T01:48:09.128Z,914.71
2019-06-26T01:49:09.106Z,914.68
2019-06-26T01:50:09.062Z,914.69
2019-06-26T01:51:09.019Z,914.70
2019-06-26T01:52:09.040Z,914.69
2019-06-26T01:53:08.946Z,914.68
2019-06-26T01:54:08.904Z,914.66
2019-06-26T01:55:09.035Z,914.65
2019-06-26T01:56:08.855Z,914.66
2019-06-26T01:57:08.793Z,914.69
2019-06-26T01:58:08.776Z,914.70
2019-06-26T01:59:08.753Z,914.66
2019-06-26T02:00:08.687Z,914.64
2019-06-26T02:01:08.786Z,914.67
2019-06-26T02:02:08.599Z,914.64
2019-06-26T02:03:08.576Z,914.62
2019-06-26T02:04:08.529Z,914.63
2019-06-26T02:05:08.558Z,914.64
2019-06-26T02:06:08.446Z,914.62
2019-06-26T02:07:08.404Z,914.59
2019-06-26T02:08:08.364Z,914.60
2019-06-26T02:09:08.333Z,914.57
2019-06-26T02:10:08.317Z,914.63
2019-06-26T02:11:08.271Z,914.62
2019-06-26T02:12:08.229Z,914.59
2019-06-26T02:13:08.186Z,914.56
2019-06-26T02:14:08.136Z,914.58
2019-06-26T02:15:08.165Z,914.54
2019-06-26T02:16:08.059Z,914.52
2019-06-26T02:17:08.027Z,914.55
2019-06-26T02:18:08.018Z,914.51
2019-06-26T02:19:08.006Z,914.49
2019-06-26T02:20:07.920Z,914.47
2019-06-26T02:21:07.864Z,914.54
2019-06-26T02:22:08.081Z,914.54
2019-06-26T02:23:07.850Z,914.55
2019-06-26T02:24:07.763Z,914.55
2019-06-26T02:25:07.796Z,914.54
2019-06-26T02:26:07.715Z,914.50
2019-06-26T02:27:07.657Z,914.50
2019-06-26T02:28:07.748Z,914.50
2019-06-26T02:29:07.570Z,914.46
2019-06-26T02:30:07.563Z,914.40
2019-06-26T02:31:07.498Z,914.37
2019-06-26T02:32:07.457Z,914.38
2019-06-26T02:33:07.428Z,914.44
2019-06-26T02:34:07.371Z,914.41
2019-06-26T02:35:09.784Z,914.41
2019-06-26T02:36:07.295Z,914.37
2019-06-26T02:37:07.267Z,914.32
2019-06-26T02:38:07.217Z,914.35
2019-06-26T02:39:07.187Z,914.38
2019-06-26T02:40:07.165Z,914.36
2019-06-26T02:41:07.107Z,914.38
2019-06-26T02:42:07.078Z,914.39
2019-06-26T02:43:07.444Z,914.38
2019-06-26T02:44:07.141Z,914.37
2019-06-26T02:45:06.955Z,914.32
2019-06-26T02:46:06.911Z,914.32
2019-06-26T02:47:19.766Z,914.33
2019-06-26T02:48:06.831Z,914.31
2019-06-26T02:49:06.798Z,914.35
2019-06-26T02:50:06.912Z,914.37
2019-06-26T02:51:06.731Z,914.35
2019-06-26T02:52:06.689Z,914.34
2019-06-26T02:53:06.643Z,914.31
2019-06-26T02:54:06.617Z,914.32
2019-06-26T02:55:06.563Z,914.34
2019-06-26T02:56:06.541Z,914.33
2019-06-26T02:57:06.497Z,914.37
2019-06-26T02:58:06.451Z,914.36
2019-06-26T02:59:06.411Z,914.38
2019-06-26T03:00:06.387Z,914.43
2019-06-26T03:01:06.339Z,914.40
2019-06-26T03:02:06.303Z,914.39
2019-06-26T03:03:06.256Z,914.38
2019-06-26T03:04:06.224Z,914.40
2019-06-26T03:05:06.195Z,914.38
2019-06-26T03:06:06.140Z,914.38
2019-06-26T03:07:06.108Z,914.42
2019-06-26T03:08:06.088Z,914.41
2019-06-26T03:09:06.031Z,914.42
2019-06-26T03:10:06.034Z,914.36
2019-06-26T03:11:06.251Z,914.39
2019-06-26T03:12:05.935Z,914.40
2019-06-26T03:13:05.878Z,914.46
2019-06-26T03:14:05.849Z,914.46
2019-06-26T03:15:09.392Z,914.38
2019-06-26T03:16:05.757Z,914.37
2019-06-26T03:17:05.883Z,914.39
2019-06-26T03:18:05.678Z,914.39
2019-06-26T03:19:05.641Z,914.41
2019-06-26T03:20:05.603Z,914.37
2019-06-26T03:21:05.570Z,914.34
2019-06-26T03:22:05.548Z,914.37
2019-06-26T03:23:05.489Z,914.36
2019-06-26T03:24:05.467Z,914.40
2019-06-26T03:25:05.427Z,914.40
2019-06-26T03:26:05.385Z,914.40
2019-06-26T03:27:08.210Z,914.32
2019-06-26T03:28:05.445Z,914.30
2019-06-26T03:29:05.264Z,914.32
2019-06-26T03:30:05.220Z,914.34
2019-06-26T03:31:05.178Z,914.30
2019-06-26T03:32:05.135Z,914.32
2019-06-26T03:33:05.114Z,914.31
2019-06-26T03:34:05.063Z,914.29
2019-06-26T03:35:05.028Z,914.26
2019-06-26T03:36:05.021Z,914.32
2019-06-26T03:37:04.946Z,914.31
2019-06-26T03:38:04.909Z,914.28
2019-06-26T03:39:05.030Z,914.27
2019-06-26T03:40:04.838Z,914.26
2019-06-26T03:41:04.790Z,914.31
2019-06-26T03:42:04.755Z,914.29
2019-06-26T03:43:04.719Z,914.27
2019-06-26T03:44:04.693Z,914.30
2019-06-26T03:45:04.647Z,914.26
2019-06-26T03:46:04.601Z,914.24
2019-06-26T03:47:04.569Z,914.25
2019-06-26T03:48:04.529Z,914.26
2019-06-26T03:49:04.483Z,914.22
2019-06-26T03:50:04.606Z,914.19
2019-06-26T03:51:04.613Z,914.20
2019-06-26T03:52:04.378Z,914.21
2019-06-26T03:53:04.332Z,914.23
2019-06-26T03:54:04.290Z,914.23
2019-06-26T03:55:04.253Z,914.23
2019-06-26T03:56:04.215Z,914.23
2019-06-26T03:57:04.209Z,914.20
2019-06-26T03:58:04.154Z,914.20
2019-06-26T03:59:04.111Z,914.14
2019-06-26T04:00:04.094Z,914.12
2019-06-26T04:01:04.203Z,914.15
2019-06-26T04:02:03.988Z,914.10
2019-06-26T04:03:03.949Z,914.15
2019-06-26T04:04:03.914Z,914.15
2019-06-26T04:05:03.883Z,914.13
2019-06-26T04:06:03.828Z,914.10
2019-06-26T04:07:03.944Z,914.07
2019-06-26T04:08:03.753Z,914.10
2019-06-26T04:09:03.725Z,914.14
2019-06-26T04:10:03.678Z,914.10
2019-06-26T04:11:03.633Z,914.05
2019-06-26T04:12:03.601Z,913.98
2019-06-26T04:13:03.556Z,913.97
2019-06-26T04:14:03.526Z,913.91
2019-06-26T04:15:03.482Z,913.90
2019-06-26T04:16:03.445Z,913.91
2019-06-26T04:17:03.402Z,913.94
2019-06-26T04:18:03.519Z,913.93
2019-06-26T04:19:03.368Z,913.97
2019-06-26T04:20:03.311Z,914.00
2019-06-26T04:21:03.252Z,913.93
2019-06-26T04:22:03.209Z,913.93
2019-06-26T04:23:03.172Z,913.94
2019-06-26T04:24:03.127Z,914.00
2019-06-26T04:25:03.093Z,914.00
2019-06-26T04:26:03.060Z,914.01
2019-06-26T04:27:03.020Z,913.97
2019-06-26T04:28:06.280Z,913.97
2019-06-26T04:29:03.090Z,914.00
2019-06-26T04:30:02.916Z,913.97
2019-06-26T04:31:02.866Z,913.99
2019-06-26T04:32:02.834Z,914.01
2019-06-26T04:33:02.790Z,913.99
2019-06-26T04:34:02.740Z,913.98
2019-06-26T04:35:02.799Z,913.98
2019-06-26T04:36:02.674Z,914.00
2019-06-26T04:37:02.634Z,914.01
2019-06-26T04:38:02.590Z,914.01
2019-06-26T04:39:02.548Z,913.96
2019-06-26T04:40:02.508Z,913.95
2019-06-26T04:41:02.471Z,913.93
2019-06-26T04:42:02.435Z,913.90
2019-06-26T04:43:02.388Z,913.90
2019-06-26T04:44:02.353Z,913.93
2019-06-26T04:45:02.320Z,913.92
2019-06-26T04:46:02.374Z,913.93
2019-06-26T04:47:02.244Z,913.92
2019-06-26T04:48:02.207Z,913.88
2019-06-26T04:49:02.150Z,913.89
2019-06-26T04:50:02.132Z,913.88
2019-06-26T04:51:02.075Z,913.87
2019-06-26T04:52:02.184Z,913.88
2019-06-26T04:53:02.009Z,913.88
2019-06-26T04:54:01.960Z,913.84
2019-06-26T04:55:01.920Z,913.88
2019-06-26T04:56:01.881Z,913.86
2019-06-26T04:57:01.839Z,913.86
2019-06-26T04:58:01.851Z,913.84
2019-06-26T04:59:01.773Z,913.82
2019-06-26T05:00:01.738Z,913.81
2019-06-26T05:01:01.695Z,913.83
2019-06-26T05:02:01.657Z,913.84
2019-06-26T05:04:01.779Z,913.90
2019-06-26T05:05:01.529Z,913.85
2019-06-26T05:06:01.506Z,913.89
2019-06-26T05:07:01.456Z,913.88
2019-06-26T05:08:01.458Z,913.84
2019-06-26T05:09:01.379Z,913.84
2019-06-26T05:10:01.337Z,913.83
2019-06-26T05:11:01.306Z,913.90
2019-06-26T05:12:01.270Z,913.86
2019-06-26T05:14:01.343Z,913.84
2019-06-26T05:15:01.151Z,913.82
2019-06-26T05:16:14.169Z,913.82
2019-06-26T05:17:01.083Z,913.83
2019-06-26T05:18:01.018Z,913.80
2019-06-26T05:19:00.976Z,913.74
2019-06-26T05:20:00.973Z,913.79
2019-06-26T05:21:00.908Z,913.75
2019-06-26T05:22:00.862Z,913.74
2019-06-26T05:23:00.840Z,913.71
2019-06-26T05:24:00.780Z,913.67
2019-06-26T05:25:00.756Z,913.66
2019-06-26T05:26:00.713Z,913.68
2019-06-26T05:27:00.667Z,913.68
2019-06-26T05:28:00.626Z,913.71
2019-06-26T05:29:00.591Z,913.74
2019-06-26T05:30:00.700Z,913.77
2019-06-26T05:31:00.511Z,913.76
2019-06-26T05:32:00.481Z,913.78
2019-06-26T05:33:00.479Z,913.84
2019-06-26T05:34:00.397Z,913.83
2019-06-26T05:35:00.352Z,913.83
2019-06-26T05:36:00.368Z,913.79
2019-06-26T05:37:00.275Z,913.76
2019-06-26T05:38:00.230Z,913.72
2019-06-26T05:39:00.199Z,913.69
2019-06-26T05:40:00.228Z,913.72
2019-06-26T05:41:00.125Z,913.77
2019-06-26T05:42:00.075Z,913.78
2019-06-26T05:43:00.033Z,913.81
2019-06-26T05:44:00.019Z,913.81
2019-06-26T05:45:00.000Z,913.83
2019-06-26T05:46:00.085Z,913.80
2019-06-26T05:46:59.891Z,913.78
2019-06-26T05:47:59.854Z,913.78
2019-06-26T05:48:59.796Z,913.78
2019-06-26T05:49:59.811Z,913.70
2019-06-26T05:52:02.077Z,913.64
2019-06-26T05:52:59.639Z,913.61
2019-06-26T05:53:59.615Z,913.64
2019-06-26T05:54:59.560Z,913.65
2019-06-26T05:55:59.526Z,913.65
2019-06-26T05:56:59.481Z,913.68
2019-06-26T05:57:59.445Z,913.64
2019-06-26T05:58:59.422Z,913.61
2019-06-26T05:59:59.365Z,913.65
2019-06-26T06:00:59.327Z,913.65
2019-06-26T06:01:59.312Z,913.67
2019-06-26T06:02:59.243Z,913.64
2019-06-26T06:03:59.203Z,913.62
2019-06-26T06:04:59.183Z,913.61
2019-06-26T06:05:59.124Z,913.63
2019-06-26T06:06:59.089Z,913.67
2019-06-26T06:07:59.267Z,913.63
2019-06-26T06:08:59.027Z,913.65
2019-06-26T06:09:58.970Z,913.61
2019-06-26T06:10:58.944Z,913.59
2019-06-26T06:11:58.896Z,913.58
2019-06-26T06:12:58.849Z,913.59
2019-06-26T06:13:58.816Z,913.58
2019-06-26T06:14:58.774Z,913.58
2019-06-26T06:15:58.734Z,913.56
2019-06-26T06:16:58.692Z,913.56
2019-06-26T06:17:58.671Z,913.59
2019-06-26T06:18:58.614Z,913.60
2019-06-26T06:19:58.571Z,913.56
2019-06-26T06:20:58.752Z,913.55
2019-06-26T06:21:58.494Z,913.53
2019-06-26T06:22:58.462Z,913.53
2019-06-26T06:23:58.421Z,913.52
2019-06-26T06:24:58.382Z,913.57
2019-06-26T06:25:58.380Z,913.57
2019-06-26T06:26:58.312Z,913.62
2019-06-26T06:27:58.264Z,913.65
2019-06-26T06:28:58.218Z,913.67
2019-06-26T06:29:58.189Z,913.64
2019-06-26T06:30:58.148Z,913.63
2019-06-26T06:31:58.100Z,913.60
2019-06-26T06:32:58.109Z,913.57
2019-06-26T06:33:58.022Z,913.56
2019-06-26T06:34:57.985Z,913.57
2019-06-26T06:36:57.908Z,913.62
2019-06-26T06:37:57.863Z,913.60
2019-06-26T06:38:57.824Z,913.60
2019-06-26T06:39:57.790Z,913.57
2019-06-26T06:40:57.750Z,913.58
2019-06-26T06:41:57.707Z,913.60
2019-06-26T06:42:57.666Z,913.58
2019-06-26T06:43:57.646Z,913.63
2019-06-26T06:44:57.591Z,913.59
2019-06-26T06:45:57.545Z,913.55
2019-06-26T06:47:04.060Z,913.56
2019-06-26T06:47:57.468Z,913.51
2019-06-26T06:48:57.517Z,913.52
2019-06-26T06:49:57.406Z,913.57
2019-06-26T06:50:57.344Z,913.55
2019-06-26T06:51:57.322Z,913.57
2019-06-26T06:52:57.267Z,913.61
2019-06-26T06:53:57.245Z,913.57
2019-06-26T06:54:57.284Z,913.53
2019-06-26T06:55:57.159Z,913.54
2019-06-26T06:56:57.118Z,913.53
2019-06-26T06:57:57.367Z,913.55
2019-06-26T06:58:57.028Z,913.51
2019-06-26T06:59:56.995Z,913.48
2019-06-26T07:00:56.957Z,913.48
2019-06-26T07:01:56.924Z,913.50
2019-06-26T07:02:56.928Z,913.51
2019-06-26T07:03:56.829Z,913.48
2019-06-26T07:04:56.883Z,913.49
2019-06-26T07:05:56.754Z,913.46
2019-06-26T07:06:58.704Z,913.49
2019-06-26T07:07:56.680Z,913.51
2019-06-26T07:08:56.630Z,913.53
2019-06-26T07:09:56.592Z,913.53
2019-06-26T07:10:56.559Z,913.58
2019-06-26T07:11:56.511Z,913.59
2019-06-26T07:12:56.487Z,913.55
2019-06-26T07:13:56.485Z,913.52
2019-06-26T07:14:56.424Z,913.56
2019-06-26T07:15:56.361Z,913.51
2019-06-26T07:16:56.326Z,913.52
2019-06-26T07:17:56.272Z,913.57
2019-06-26T07:18:56.238Z,913.59
2019-06-26T07:19:56.191Z,913.61
2019-06-26T07:20:56.157Z,913.59
2019-06-26T07:21:56.112Z,913.65
2019-06-26T07:22:56.118Z,913.63
2019-06-26T07:23:56.039Z,913.59
2019-06-26T07:24:56.143Z,913.62
2019-06-26T07:25:55.964Z,913.60
2019-06-26T07:26:55.922Z,913.60
2019-06-26T07:27:55.946Z,913.60
2019-06-26T07:28:55.839Z,913.64
2019-06-26T07:29:55.802Z,913.66
2019-06-26T07:30:55.756Z,913.70
2019-06-26T07:31:55.733Z,913.68
2019-06-26T07:32:55.671Z,913.74
2019-06-26T07:33:55.959Z,913.77
2019-06-26T07:34:55.609Z,913.74
2019-06-26T07:35:55.578Z,913.73
2019-06-26T07:36:55.514Z,913.76
2019-06-26T07:37:55.476Z,913.76
2019-06-26T07:38:55.435Z,913.79
2019-06-26T07:40:00.265Z,913.79
2019-06-26T07:40:55.359Z,913.80
2019-06-26T07:41:55.337Z,913.81
2019-06-26T07:42:55.279Z,913.83
2019-06-26T07:43:55.237Z,913.83
2019-06-26T07:44:55.194Z,913.85
2019-06-26T07:45:55.176Z,913.88
2019-06-26T07:46:55.113Z,913.91
2019-06-26T07:47:55.080Z,913.92
2019-06-26T07:48:57.440Z,913.93
2019-06-26T07:49:54.997Z,913.97
2019-06-26T07:50:54.959Z,913.95
2019-06-26T07:51:54.918Z,913.94
2019-06-26T07:52:54.883Z,913.93
2019-06-26T07:53:54.833Z,913.93
2019-06-26T07:54:54.821Z,913.96
2019-06-26T07:55:54.778Z,913.95
2019-06-26T07:56:54.734Z,913.94
2019-06-26T07:57:54.683Z,913.94
2019-06-26T07:58:54.641Z,913.98
2019-06-26T07:59:54.808Z,913.96
2019-06-26T08:00:54.554Z,913.99
2019-06-26T08:01:54.517Z,913.98
2019-06-26T08:02:54.486Z,914.00
2019-06-26T08:03:54.464Z,914.04
2019-06-26T08:05:54.355Z,914.04
2019-06-26T08:06:54.376Z,914.09
2019-06-26T08:07:54.284Z,914.08
2019-06-26T08:08:54.273Z,914.12
2019-06-26T08:09:54.201Z,914.12
2019-06-26T08:10:54.179Z,914.11
2019-06-26T08:11:54.114Z,914.11
2019-06-26T08:12:54.081Z,914.16
2019-06-26T08:13:54.046Z,914.13
2019-06-26T08:14:54.075Z,914.16
2019-06-26T08:15:53.961Z,914.15
2019-06-26T08:16:53.920Z,914.17
2019-06-26T08:18:00.757Z,914.19
2019-06-26T08:18:53.838Z,914.15
2019-06-26T08:19:53.798Z,914.16
2019-06-26T08:21:10.922Z,914.18
2019-06-26T08:21:53.726Z,914.15
2019-06-26T08:22:53.682Z,914.17
2019-06-26T08:23:53.653Z,914.18
2019-06-26T08:24:53.605Z,914.22
2019-06-26T08:25:53.573Z,914.22
2019-06-26T08:26:53.513Z,914.24
2019-06-26T08:27:53.483Z,914.24
2019-06-26T08:28:53.441Z,914.29
2019-06-26T08:29:53.405Z,914.32
2019-06-26T08:30:53.374Z,914.28
2019-06-26T08:31:53.324Z,914.31
2019-06-26T08:32:53.358Z,914.30
2019-06-26T08:33:53.241Z,914.30
2019-06-26T08:34:53.199Z,914.32
2019-06-26T08:35:53.166Z,914.31
2019-06-26T08:36:53.141Z,914.33
2019-06-26T08:38:09.076Z,914.34
2019-06-26T08:38:53.049Z,914.35
2019-06-26T08:39:52.997Z,914.39
2019-06-26T08:40:52.960Z,914.42
2019-06-26T08:41:52.934Z,914.40
2019-06-26T08:42:52.932Z,914.41
2019-06-26T08:43:52.837Z,914.43
2019-06-26T08:44:52.797Z,914.46
2019-06-26T08:45:52.773Z,914.44
2019-06-26T08:46:52.721Z,914.49
2019-06-26T08:47:52.679Z,914.47
2019-06-26T08:48:52.670Z,914.52
2019-06-26T08:49:52.602Z,914.49
2019-06-26T08:50:52.566Z,914.54
2019-06-26T08:51:52.519Z,914.52
2019-06-26T08:52:52.553Z,914.53
2019-06-26T08:53:52.683Z,914.52
2019-06-26T08:54:52.398Z,914.52
2019-06-26T08:55:52.369Z,914.53
2019-06-26T08:56:52.328Z,914.53
2019-06-26T08:57:52.294Z,914.56
2019-06-26T08:58:52.239Z,914.55
2019-06-26T08:59:52.195Z,914.56
2019-06-26T09:00:52.158Z,914.54
2019-06-26T09:01:52.124Z,914.53
2019-06-26T09:02:52.082Z,914.55
2019-06-26T09:03:52.041Z,914.55
2019-06-26T09:04:51.999Z,914.59
2019-06-26T09:05:51.969Z,914.58
2019-06-26T09:06:51.996Z,914.58
2019-06-26T09:07:51.934Z,914.64
2019-06-26T09:08:51.839Z,914.63
2019-06-26T09:09:51.798Z,914.62
2019-06-26T09:10:51.756Z,914.69
2019-06-26T09:11:51.773Z,914.67
2019-06-26T09:12:51.681Z,914.66
2019-06-26T09:13:51.638Z,914.67
2019-06-26T09:14:51.669Z,914.69
2019-06-26T09:15:51.566Z,914.65
2019-06-26T09:16:51.531Z,914.64
2019-06-26T09:17:51.502Z,914.67
2019-06-26T09:18:51.447Z,914.70
2019-06-26T09:19:51.547Z,914.73
2019-06-26T09:20:51.395Z,914.76
2019-06-26T09:21:51.319Z,914.75
2019-06-26T09:22:51.287Z,914.76
2019-06-26T09:23:51.251Z,914.77
2019-06-26T09:24:51.196Z,914.75
2019-06-26T09:25:51.437Z,914.74
2019-06-26T09:26:51.119Z,914.74
2019-06-26T09:27:51.095Z,914.78
2019-06-26T09:28:51.041Z,914.77
2019-06-26T09:29:51.076Z,914.77
2019-06-26T09:30:50.971Z,914.77
2019-06-26T09:31:51.099Z,914.79
2019-06-26T09:32:50.877Z,914.80
2019-06-26T09:33:50.846Z,914.80
2019-06-26T09:34:50.804Z,914.81
2019-06-26T09:35:50.790Z,914.81
2019-06-26T09:36:50.740Z,914.80
2019-06-26T09:37:50.676Z,914.80
2019-06-26T09:38:50.701Z,914.79
2019-06-26T09:39:50.595Z,914.81
2019-06-26T09:40:50.574Z,914.82
2019-06-26T09:41:50.511Z,914.83
2019-06-26T09:42:50.482Z,914.88
2019-06-26T09:43:50.443Z,914.92
2019-06-26T09:44:50.394Z,914.90
2019-06-26T09:45:50.365Z,914.89
2019-06-26T09:46:50.315Z,914.87
2019-06-26T09:47:50.279Z,914.89
2019-06-26T09:48:53.285Z,914.92
2019-06-26T09:49:50.201Z,914.90
2019-06-26T09:50:50.152Z,914.91
2019-06-26T09:51:50.125Z,914.92
2019-06-26T09:52:50.179Z,914.91
2019-06-26T09:53:50.037Z,914.94
2019-06-26T09:54:49.998Z,914.92
2019-06-26T09:55:49.958Z,914.96
2019-06-26T09:56:49.912Z,914.90
2019-06-26T09:57:49.895Z,914.98
2019-06-26T09:58:49.861Z,914.96
2019-06-26T09:59:49.801Z,914.97
2019-06-26T10:00:49.762Z,914.93
2019-06-26T10:01:49.732Z,914.96
2019-06-26T10:02:49.671Z,914.97
2019-06-26T10:03:49.701Z,915.01
2019-06-26T10:04:49.600Z,915.01
2019-06-26T10:05:49.563Z,915.03
2019-06-26T10:06:49.515Z,915.04
2019-06-26T10:07:49.480Z,915.04
2019-06-26T10:08:49.596Z,915.07
2019-06-26T10:09:49.441Z,915.10
2019-06-26T10:10:49.427Z,915.12
2019-06-26T10:11:49.315Z,915.11
2019-06-26T10:12:49.273Z,915.14
2019-06-26T10:13:49.234Z,915.10
2019-06-26T10:14:49.444Z,915.13
2019-06-26T10:15:49.156Z,915.12
2019-06-26T10:16:49.129Z,915.17
2019-06-26T10:17:49.090Z,915.13
2019-06-26T10:18:49.063Z,915.08
2019-06-26T10:19:48.998Z,915.10
2019-06-26T10:20:49.113Z,915.13
2019-06-26T10:21:48.920Z,915.14
2019-06-26T10:22:48.876Z,915.14
2019-06-26T10:23:48.838Z,915.14
2019-06-26T10:24:48.800Z,915.15
2019-06-26T10:25:48.753Z,915.16
2019-06-26T10:26:48.723Z,915.19
2019-06-26T10:27:48.690Z,915.16
2019-06-26T10:28:48.643Z,915.22
2019-06-26T10:29:48.612Z,915.26
2019-06-26T10:30:48.589Z,915.25
2019-06-26T10:31:48.622Z,915.30
2019-06-26T10:32:48.509Z,915.32
2019-06-26T10:33:48.454Z,915.33
2019-06-26T10:34:48.444Z,915.39
2019-06-26T10:35:48.367Z,915.39
2019-06-26T10:36:48.333Z,915.38
2019-06-26T10:37:48.314Z,915.45
2019-06-26T10:38:48.253Z,915.45
2019-06-26T10:39:48.256Z,915.51
2019-06-26T10:40:48.172Z,915.53
2019-06-26T10:41:48.137Z,915.50
2019-06-26T10:42:48.354Z,915.49
2019-06-26T10:43:48.081Z,915.51
2019-06-26T10:44:48.033Z,915.50
2019-06-26T10:45:48.017Z,915.47
2019-06-26T10:46:47.945Z,915.46
2019-06-26T10:47:47.916Z,915.51
2019-06-26T10:48:47.879Z,915.51
2019-06-26T10:49:47.844Z,915.55
2019-06-26T10:50:54.586Z,915.57
2019-06-26T10:51:47.793Z,915.59
2019-06-26T10:52:47.738Z,915.62
2019-06-26T10:53:47.729Z,915.63
2019-06-26T10:54:47.674Z,915.66
2019-06-26T10:55:47.634Z,915.67
2019-06-26T10:56:47.587Z,915.67
2019-06-26T10:57:47.543Z,915.69
2019-06-26T10:58:47.513Z,915.69
2019-06-26T10:59:47.640Z,915.71
2019-06-26T11:00:47.461Z,915.76
2019-06-26T11:01:47.419Z,915.79
2019-06-26T11:02:47.370Z,915.79
2019-06-26T11:03:47.341Z,915.82
2019-06-26T11:04:47.297Z,915.87
2019-06-26T11:05:47.421Z,915.87
2019-06-26T11:06:47.225Z,915.88
2019-06-26T11:07:47.200Z,915.89
2019-06-26T11:08:47.158Z,915.90
2019-06-26T11:09:47.124Z,915.93
2019-06-26T11:10:47.101Z,915.94
2019-06-26T11:11:47.054Z,915.96
2019-06-26T11:12:49.083Z,915.94
2019-06-26T11:13:47.067Z,915.98
2019-06-26T11:14:46.965Z,915.99
2019-06-26T11:15:46.939Z,915.99
2019-06-26T11:16:46.885Z,915.99
2019-06-26T11:17:46.864Z,915.96
2019-06-26T11:18:46.817Z,915.94
2019-06-26T11:19:46.781Z,915.95
2019-06-26T11:20:46.739Z,915.97
2019-06-26T11:21:46.702Z,915.97
2019-06-26T11:22:46.674Z,915.97
2019-06-26T11:23:46.646Z,916.04
2019-06-26T11:24:46.624Z,916.07
2019-06-26T11:25:46.563Z,916.06
2019-06-26T11:26:46.527Z,916.09
2019-06-26T11:27:46.494Z,916.12
2019-06-26T11:28:46.483Z,916.14
2019-06-26T11:29:46.421Z,916.12
2019-06-26T11:30:46.392Z,916.11
2019-06-26T11:31:46.353Z,916.13
2019-06-26T11:32:46.318Z,916.12
2019-06-26T11:33:46.282Z,916.16
2019-06-26T11:34:46.250Z,916.12
2019-06-26T11:35:46.213Z,916.17
2019-06-26T11:36:59.472Z,916.16
2019-06-26T11:37:46.143Z,916.18
2019-06-26T11:38:46.110Z,916.18
2019-06-26T11:39:46.084Z,916.21
2019-06-26T11:40:46.045Z,916.22
2019-06-26T11:41:46.012Z,916.18
2019-06-26T11:42:46.208Z,916.17
2019-06-26T11:43:45.963Z,916.21
2019-06-26T11:44:45.897Z,916.23
2019-06-26T11:45:45.870Z,916.22
2019-06-26T11:46:45.856Z,916.24
2019-06-26T11:47:46.113Z,916.25
2019-06-26T11:48:45.788Z,916.31
2019-06-26T11:49:59.038Z,916.30
2019-06-26T11:50:45.697Z,916.34
2019-06-26T11:51:45.738Z,916.33
2019-06-26T11:52:45.629Z,916.34
2019-06-26T11:53:45.590Z,916.36
2019-06-26T11:55:01.141Z,916.36
2019-06-26T11:55:45.530Z,916.36
2019-06-26T11:56:45.496Z,916.34
2019-06-26T11:57:45.455Z,916.36
2019-06-26T11:58:45.419Z,916.30
2019-06-26T11:59:45.404Z,916.27
2019-06-26T12:00:45.371Z,916.26
2019-06-26T12:01:45.331Z,916.26
2019-06-26T12:02:45.290Z,916.29
2019-06-26T12:03:45.467Z,916.27
2019-06-26T12:04:45.224Z,916.23
2019-06-26T12:05:45.191Z,916.25
2019-06-26T12:06:46.302Z,916.26
2019-06-26T12:07:45.121Z,916.22
2019-06-26T12:08:45.093Z,916.20
2019-06-26T12:09:45.272Z,916.25
2019-06-26T12:10:45.025Z,916.22
2019-06-26T12:11:45.118Z,916.21
2019-06-26T12:12:44.976Z,916.21
2019-06-26T12:13:44.933Z,916.21
2019-06-26T12:14:44.908Z,916.19
2019-06-26T12:15:44.874Z,916.21
2019-06-26T12:16:44.832Z,916.15
2019-06-26T12:17:44.804Z,916.20
2019-06-26T12:18:44.772Z,916.17
2019-06-26T12:19:44.948Z,916.17
2019-06-26T12:20:44.748Z,916.14
2019-06-26T12:21:44.673Z,916.16
2019-06-26T12:22:44.684Z,916.17
2019-06-26T12:23:44.610Z,916.18
2019-06-26T12:24:44.585Z,916.19
2019-06-26T12:25:44.816Z,916.23
2019-06-26T12:26:44.516Z,916.20
2019-06-26T12:27:44.483Z,916.18
2019-06-26T12:28:44.459Z,916.20
2019-06-26T12:29:44.424Z,916.25
2019-06-26T12:30:44.483Z,916.26
2019-06-26T12:31:44.355Z,916.24
2019-06-26T12:33:01.212Z,916.26